sensor_id;sensor_type;location;lat;lon;timestamp;pressure;altitude;pressure_sealevel;temperature;humidity
46614;BME280;32338;50.430;6.806;2023-12-20T00:01:32;65772.13;;;3.21;100.00
46614;BME280;32338;50.430;6.806;2023-12-20T00:03:59;65768.97;;;3.21;100.00
46614;BME280;32338;50.430;6.806;2023-12-20T00:06:25;65761.34;;;3.16;100.00
46614;BME280;32338;50.430;6.806;2023-12-20T00:08:52;65760.00;;;3.13;100.00
46614;BME280;32338;50.430;6.806;2023-12-20T00:11:20;65760.22;;;3.15;100.00
46614;BME280;32338;50.430;6.806;2023-12-20T00:13:46;65762.47;;;3.17;100.00
46614;BME280;32338;50.430;6.806;2023-12-20T00:16:13;65771.91;;;3.19;100.00
46614;BME280;32338;50.430;6.806;2023-12-20T00:18:40;65763.78;;;3.21;100.00
46614;BME280;32338;50.430;6.806;2023-12-20T00:21:06;65769.88;;;3.19;100.00
46614;BME280;32338;50.430;6.806;2023-12-20T00:23:33;65767.84;;;3.20;100.00
46614;BME280;32338;50.430;6.806;2023-12-20T00:25:59;65768.41;;;3.20;100.00
46614;BME280;32338;50.430;6.806;2023-12-20T00:28:27;65772.91;;;3.24;100.00
46614;BME280;32338;50.430;6.806;2023-12-20T00:30:54;65777.50;;;3.24;100.00
46614;BME280;32338;50.430;6.806;2023-12-20T00:33:20;65768.06;;;3.22;100.00
46614;BME280;32338;50.430;6.806;2023-12-20T00:35:47;65776.03;;;3.25;100.00
46614;BME280;32338;50.430;6.806;2023-12-20T00:38:14;65774.78;;;3.29;100.00
46614;BME280;32338;50.430;6.806;2023-12-20T00:40:40;65779.03;;;3.30;100.00
46614;BME280;32338;50.430;6.806;2023-12-20T00:43:07;65783.66;;;3.30;100.00
46614;BME280;32338;50.430;6.806;2023-12-20T00:45:35;65774.56;;;3.26;100.00
46614;BME280;32338;50.430;6.806;2023-12-20T00:48:02;65775.31;;;3.29;100.00
46614;BME280;32338;50.430;6.806;2023-12-20T00:50:28;65774.00;;;3.26;100.00
46614;BME280;32338;50.430;6.806;2023-12-20T00:52:55;65771.19;;;3.23;100.00
46614;BME280;32338;50.430;6.806;2023-12-20T00:55:22;65772.53;;;3.27;100.00
46614;BME280;32338;50.430;6.806;2023-12-20T00:57:48;65775.91;;;3.30;100.00
46614;BME280;32338;50.430;6.806;2023-12-20T01:00:15;65785.00;;;3.33;100.00
46614;BME280;32338;50.430;6.806;2023-12-20T01:02:43;65780.72;;;3.32;100.00
46614;BME280;32338;50.430;6.806;2023-12-20T01:05:12;65781.84;;;3.33;100.00
46614;BME280;32338;50.430;6.806;2023-12-20T01:07:38;65786.13;;;3.34;100.00
46614;BME280;32338;50.430;6.806;2023-12-20T01:10:05;65785.22;;;3.36;100.00
46614;BME280;32338;50.430;6.806;2023-12-20T01:12:32;65782.25;;;3.38;100.00
46614;BME280;32338;50.430;6.806;2023-12-20T01:14:58;65787.63;;;3.40;100.00
46614;BME280;32338;50.430;6.806;2023-12-20T01:17:25;65785.75;;;3.36;100.00
46614;BME280;32338;50.430;6.806;2023-12-20T01:19:53;65792.28;;;3.40;100.00
46614;BME280;32338;50.430;6.806;2023-12-20T01:22:19;65797.66;;;3.43;100.00
46614;BME280;32338;50.430;6.806;2023-12-20T01:24:46;65796.41;;;3.46;100.00
46614;BME280;32338;50.430;6.806;2023-12-20T01:27:12;65798.44;;;3.46;100.00
46614;BME280;32338;50.430;6.806;2023-12-20T01:29:39;65788.22;;;3.41;100.00
46614;BME280;32338;50.430;6.806;2023-12-20T01:32:06;65795.06;;;3.43;100.00
46614;BME280;32338;50.430;6.806;2023-12-20T01:34:33;65798.22;;;3.43;100.00
46614;BME280;32338;50.430;6.806;2023-12-20T01:37:01;65794.34;;;3.47;100.00
46614;BME280;32338;50.430;6.806;2023-12-20T01:39:27;65797.53;;;3.47;100.00
46614;BME280;32338;50.430;6.806;2023-12-20T01:41:54;65792.69;;;3.45;100.00
46614;BME280;32338;50.430;6.806;2023-12-20T01:44:20;65799.19;;;3.49;100.00
46614;BME280;32338;50.430;6.806;2023-12-20T01:46:47;65801.25;;;3.48;100.00
46614;BME280;32338;50.430;6.806;2023-12-20T01:49:14;65798.66;;;3.48;100.00
46614;BME280;32338;50.430;6.806;2023-12-20T01:51:41;65798.66;;;3.48;100.00
46614;BME280;32338;50.430;6.806;2023-12-20T01:54:10;65798.66;;;3.48;100.00
46614;BME280;32338;50.430;6.806;2023-12-20T01:56:37;65804.03;;;3.51;100.00
46614;BME280;32338;50.430;6.806;2023-12-20T01:59:04;65806.47;;;3.55;100.00
46614;BME280;32338;50.430;6.806;2023-12-20T02:01:30;65814.31;;;3.63;100.00
46614;BME280;32338;50.430;6.806;2023-12-20T02:03:58;65812.09;;;3.61;100.00
46614;BME280;32338;50.430;6.806;2023-12-20T02:06:29;65816.56;;;3.65;100.00
46614;BME280;32338;50.430;6.806;2023-12-20T02:08:57;65810.97;;;3.60;100.00
46614;BME280;32338;50.430;6.806;2023-12-20T02:11:28;65798.66;;;3.48;100.00
46614;BME280;32338;50.430;6.806;2023-12-20T02:13:55;65782.75;;;3.31;100.00
46614;BME280;32338;50.430;6.806;2023-12-20T02:16:22;65745.09;;;3.01;100.00
46614;BME280;32338;50.430;6.806;2023-12-20T02:18:48;65720.50;;;2.79;100.00
46614;BME280;32338;50.430;6.806;2023-12-20T02:21:15;65707.19;;;2.62;100.00
46614;BME280;32338;50.430;6.806;2023-12-20T02:23:43;65686.38;;;2.47;100.00
46614;BME280;32338;50.430;6.806;2023-12-20T02:26:10;65686.72;;;2.45;100.00
46614;BME280;32338;50.430;6.806;2023-12-20T02:28:38;65674.06;;;2.36;100.00
46614;BME280;32338;50.430;6.806;2023-12-20T02:31:05;65669.72;;;2.27;100.00
46614;BME280;32338;50.430;6.806;2023-12-20T02:33:31;65669.38;;;2.29;100.00
46614;BME280;32338;50.430;6.806;2023-12-20T02:35:58;65671.41;;;2.29;100.00
46614;BME280;32338;50.430;6.806;2023-12-20T02:38:24;65659.88;;;2.20;100.00
46614;BME280;32338;50.430;6.806;2023-12-20T02:40:52;65661.34;;;2.19;100.00
46614;BME280;32338;50.430;6.806;2023-12-20T02:43:19;65647.56;;;2.09;100.00
46614;BME280;32338;50.430;6.806;2023-12-20T02:45:45;65650.16;;;2.09;100.00
46614;BME280;32338;50.430;6.806;2023-12-20T02:48:12;65650.72;;;2.09;100.00
46614;BME280;32338;50.430;6.806;2023-12-20T02:50:38;65647.00;;;2.08;100.00
46614;BME280;32338;50.430;6.806;2023-12-20T02:53:05;65647.56;;;2.09;100.00
46614;BME280;32338;50.430;6.806;2023-12-20T02:55:32;65646.66;;;2.10;100.00
46614;BME280;32338;50.430;6.806;2023-12-20T02:58:00;65650.94;;;2.12;100.00
46614;BME280;32338;50.430;6.806;2023-12-20T03:00:26;65663.56;;;2.21;100.00
46614;BME280;32338;50.430;6.806;2023-12-20T03:02:53;65652.06;;;2.13;100.00
46614;BME280;32338;50.430;6.806;2023-12-20T03:05:19;65647.94;;;2.07;100.00
46614;BME280;32338;50.430;6.806;2023-12-20T03:07:46;65641.97;;;2.04;100.00
46614;BME280;32338;50.430;6.806;2023-12-20T03:10:13;65639.75;;;2.02;100.00
46614;BME280;32338;50.430;6.806;2023-12-20T03:12:39;65642.34;;;2.02;100.00
46614;BME280;32338;50.430;6.806;2023-12-20T03:15:08;65643.66;;;2.05;100.00
46614;BME280;32338;50.430;6.806;2023-12-20T03:17:35;65639.97;;;2.04;100.00
46614;BME280;32338;50.430;6.806;2023-12-20T03:20:01;65638.28;;;2.03;100.00
46614;BME280;32338;50.430;6.806;2023-12-20T03:22:28;65641.44;;;2.03;100.00
46614;BME280;32338;50.430;6.806;2023-12-20T03:24:55;65642.88;;;2.02;100.00
46614;BME280;32338;50.430;6.806;2023-12-20T03:27:21;65639.19;;;2.01;100.00
46614;BME280;32338;50.430;6.806;2023-12-20T03:29:48;65639.75;;;2.02;100.00
46614;BME280;32338;50.430;6.806;2023-12-20T03:32:15;65649.41;;;2.06;100.00
46614;BME280;32338;50.430;6.806;2023-12-20T03:34:42;65647.34;;;2.06;100.00
46614;BME280;32338;50.430;6.806;2023-12-20T03:37:09;65641.63;;;2.06;100.00
46614;BME280;32338;50.430;6.806;2023-12-20T03:39:35;65644.56;;;2.04;100.00
46614;BME280;32338;50.430;6.806;2023-12-20T03:42:02;65649.94;;;2.06;100.00
46614;BME280;32338;50.430;6.806;2023-12-20T03:44:29;65646.47;;;2.08;100.00
46614;BME280;32338;50.430;6.806;2023-12-20T03:46:56;65645.91;;;2.07;100.00
46614;BME280;32338;50.430;6.806;2023-12-20T03:49:23;65644.22;;;2.06;100.00
46614;BME280;32338;50.430;6.806;2023-12-20T03:51:50;65640.50;;;2.05;100.00
46614;BME280;32338;50.430;6.806;2023-12-20T03:54:17;65641.97;;;2.04;100.00
46614;BME280;32338;50.430;6.806;2023-12-20T03:56:43;65636.59;;;2.01;100.00
46614;BME280;32338;50.430;6.806;2023-12-20T03:59:10;65637.50;;;2.00;100.00
46614;BME280;32338;50.430;6.806;2023-12-20T04:01:36;65640.84;;;2.03;100.00
46614;BME280;32338;50.430;6.806;2023-12-20T04:04:03;65637.16;;;2.02;100.00
46614;BME280;32338;50.430;6.806;2023-12-20T04:06:31;65645.34;;;2.07;100.00
46614;BME280;32338;50.430;6.806;2023-12-20T04:08:58;65646.47;;;2.08;100.00
46614;BME280;32338;50.430;6.806;2023-12-20T04:11:24;65646.81;;;2.06;100.00
46614;BME280;32338;50.430;6.806;2023-12-20T04:13:51;65658.91;;;2.15;100.00
46614;BME280;32338;50.430;6.806;2023-12-20T04:16:17;65657.66;;;2.18;100.00
46614;BME280;32338;50.430;6.806;2023-12-20T04:18:44;65657.06;;;2.18;100.00
46614;BME280;32338;50.430;6.806;2023-12-20T04:21:10;65650.03;;;2.14;100.00
46614;BME280;32338;50.430;6.806;2023-12-20T04:23:38;65643.31;;;2.07;100.00
46614;BME280;32338;50.430;6.806;2023-12-20T04:26:05;65657.44;;;2.16;100.00
46614;BME280;32338;50.430;6.806;2023-12-20T04:28:32;65654.28;;;2.15;100.00
46614;BME280;32338;50.430;6.806;2023-12-20T04:30:58;65654.28;;;2.15;100.00
46614;BME280;32338;50.430;6.806;2023-12-20T04:33:25;65650.94;;;2.12;100.00
46614;BME280;32338;50.430;6.806;2023-12-20T04:35:51;65648.13;;;2.09;100.00
46614;BME280;32338;50.430;6.806;2023-12-20T04:38:18;65654.97;;;2.11;100.00
46614;BME280;32338;50.430;6.806;2023-12-20T04:40:46;65644.44;;;2.08;100.00
46614;BME280;32338;50.430;6.806;2023-12-20T04:43:13;65659.81;;;2.13;100.00
46614;BME280;32338;50.430;6.806;2023-12-20T04:45:40;65648.34;;;2.12;100.00
46614;BME280;32338;50.430;6.806;2023-12-20T04:48:07;65648.91;;;2.13;100.00
46614;BME280;32338;50.430;6.806;2023-12-20T04:50:33;65656.53;;;2.17;100.00
46614;BME280;32338;50.430;6.806;2023-12-20T04:53:00;65652.25;;;2.16;100.00
46614;BME280;32338;50.430;6.806;2023-12-20T04:55:26;65652.06;;;2.13;100.00
46614;BME280;32338;50.430;6.806;2023-12-20T04:57:54;65655.41;;;2.16;100.00
46614;BME280;32338;50.430;6.806;2023-12-20T05:00:21;65661.91;;;2.20;100.00
46614;BME280;32338;50.430;6.806;2023-12-20T05:02:48;65658.41;;;2.21;100.00
46614;BME280;32338;50.430;6.806;2023-12-20T05:05:15;65673.09;;;2.30;100.00
46614;BME280;32338;50.430;6.806;2023-12-20T05:07:43;65659.88;;;2.20;100.00
46614;BME280;32338;50.430;6.806;2023-12-20T05:10:09;65659.88;;;2.20;100.00
46614;BME280;32338;50.430;6.806;2023-12-20T05:12:36;65664.34;;;2.24;100.00
46614;BME280;32338;50.430;6.806;2023-12-20T05:15:05;65653.94;;;2.17;100.00
46614;BME280;32338;50.430;6.806;2023-12-20T05:17:32;65657.97;;;2.16;100.00
46614;BME280;32338;50.430;6.806;2023-12-20T05:19:59;65657.44;;;2.16;100.00
46614;BME280;32338;50.430;6.806;2023-12-20T05:22:25;65639.97;;;2.04;100.00
46614;BME280;32338;50.430;6.806;2023-12-20T05:24:52;65637.84;;;1.98;100.00
46614;BME280;32338;50.430;6.806;2023-12-20T05:27:19;65626.53;;;1.92;100.00
46614;BME280;32338;50.430;6.806;2023-12-20T05:29:46;65624.66;;;1.88;100.00
46614;BME280;32338;50.430;6.806;2023-12-20T05:32:14;65620.19;;;1.84;100.00
46614;BME280;32338;50.430;6.806;2023-12-20T05:34:40;65629.13;;;1.92;100.00
46614;BME280;32338;50.430;6.806;2023-12-20T05:37:07;65634.94;;;2.00;100.00
46614;BME280;32338;50.430;6.806;2023-12-20T05:39:33;65644.22;;;2.06;100.00
46614;BME280;32338;50.430;6.806;2023-12-20T05:42:00;65648.91;;;2.13;100.00
46614;BME280;32338;50.430;6.806;2023-12-20T05:44:26;65653.94;;;2.17;100.00
46614;BME280;32338;50.430;6.806;2023-12-20T05:46:53;65655.06;;;2.18;100.00
46614;BME280;32338;50.430;6.806;2023-12-20T05:49:21;65654.28;;;2.15;100.00
46614;BME280;32338;50.430;6.806;2023-12-20T05:51:47;65646.81;;;2.06;100.00
46614;BME280;32338;50.430;6.806;2023-12-20T05:54:15;65641.78;;;2.01;100.00
46614;BME280;32338;50.430;6.806;2023-12-20T05:56:41;65638.28;;;2.03;100.00
46614;BME280;32338;50.430;6.806;2023-12-20T05:59:08;65638.44;;;1.98;100.00
46614;BME280;32338;50.430;6.806;2023-12-20T06:01:35;65635.25;;;1.98;100.00
46614;BME280;32338;50.430;6.806;2023-12-20T06:04:01;65641.44;;;2.03;100.00
46614;BME280;32338;50.430;6.806;2023-12-20T06:06:29;65643.31;;;2.07;100.00
46614;BME280;32338;50.430;6.806;2023-12-20T06:08:56;65647.94;;;2.07;100.00
46614;BME280;32338;50.430;6.806;2023-12-20T06:11:23;65656.31;;;2.15;100.00
46614;BME280;32338;50.430;6.806;2023-12-20T06:13:50;65650.59;;;2.14;100.00
46614;BME280;32338;50.430;6.806;2023-12-20T06:16:18;65643.31;;;2.07;100.00
46614;BME280;32338;50.430;6.806;2023-12-20T06:18:45;65642.34;;;2.02;100.00
46614;BME280;32338;50.430;6.806;2023-12-20T06:21:11;65631.59;;;1.97;100.00
46614;BME280;32338;50.430;6.806;2023-12-20T06:23:40;65627.09;;;1.92;100.00
46614;BME280;32338;50.430;6.806;2023-12-20T06:26:07;65631.13;;;1.91;100.00
46614;BME280;32338;50.430;6.806;2023-12-20T06:28:33;65623.19;;;1.89;100.00
46614;BME280;32338;50.430;6.806;2023-12-20T06:31:00;65630.25;;;1.93;100.00
46614;BME280;32338;50.430;6.806;2023-12-20T06:33:26;65631.59;;;1.97;100.00
46614;BME280;32338;50.430;6.806;2023-12-20T06:35:54;65644.56;;;2.04;100.00
46614;BME280;32338;50.430;6.806;2023-12-20T06:38:21;65647.34;;;2.06;100.00
46614;BME280;32338;50.430;6.806;2023-12-20T06:40:49;65651.13;;;2.15;100.00
46614;BME280;32338;50.430;6.806;2023-12-20T06:43:15;65660.22;;;2.18;100.00
46614;BME280;32338;50.430;6.806;2023-12-20T06:45:42;65660.22;;;2.18;100.00
46614;BME280;32338;50.430;6.806;2023-12-20T06:48:09;65664.16;;;2.22;100.00
46614;BME280;32338;50.430;6.806;2023-12-20T06:50:37;65662.88;;;2.25;100.00
46614;BME280;32338;50.430;6.806;2023-12-20T06:53:05;65671.28;;;2.33;100.00
46614;BME280;32338;50.430;6.806;2023-12-20T06:55:32;65669.59;;;2.32;100.00
46614;BME280;32338;50.430;6.806;2023-12-20T06:58:00;65666.44;;;2.31;100.00
46614;BME280;32338;50.430;6.806;2023-12-20T07:00:27;65668.28;;;2.28;100.00
46614;BME280;32338;50.430;6.806;2023-12-20T07:02:54;65666.22;;;2.29;100.00
46614;BME280;32338;50.430;6.806;2023-12-20T07:05:21;65670.69;;;2.33;100.00
46614;BME280;32338;50.430;6.806;2023-12-20T07:07:47;65671.63;;;2.31;100.00
46614;BME280;32338;50.430;6.806;2023-12-20T07:10:14;65676.28;;;2.38;100.00
46614;BME280;32338;50.430;6.806;2023-12-20T07:12:40;65683.91;;;2.42;100.00
46614;BME280;32338;50.430;6.806;2023-12-20T07:15:09;65675.53;;;2.35;100.00
46614;BME280;32338;50.430;6.806;2023-12-20T07:17:36;65687.84;;;2.46;100.00
46614;BME280;32338;50.430;6.806;2023-12-20T07:20:03;65684.13;;;2.45;100.00
46614;BME280;32338;50.430;6.806;2023-12-20T07:22:30;65683.91;;;2.42;100.00
46614;BME280;32338;50.430;6.806;2023-12-20T07:24:57;65681.13;;;2.40;100.00
46614;BME280;32338;50.430;6.806;2023-12-20T07:27:24;65690.63;;;2.49;100.00
46614;BME280;32338;50.430;6.806;2023-12-20T07:29:51;65696.78;;;2.54;100.00
46614;BME280;32338;50.430;6.806;2023-12-20T07:32:19;65694.75;;;2.55;100.00
46614;BME280;32338;50.430;6.806;2023-12-20T07:34:45;65690.09;;;2.48;100.00
46614;BME280;32338;50.430;6.806;2023-12-20T07:37:12;65696.78;;;2.54;100.00
46614;BME280;32338;50.430;6.806;2023-12-20T07:39:39;65691.75;;;2.50;100.00
46614;BME280;32338;50.430;6.806;2023-12-20T07:42:06;65691.19;;;2.49;100.00
46614;BME280;32338;50.430;6.806;2023-12-20T07:44:33;65687.50;;;2.48;100.00
46614;BME280;32338;50.430;6.806;2023-12-20T07:47:01;65690.44;;;2.46;100.00
46614;BME280;32338;50.430;6.806;2023-12-20T07:49:29;65693.28;;;2.56;100.00
46614;BME280;32338;50.430;6.806;2023-12-20T07:51:56;65701.25;;;2.58;100.00
46614;BME280;32338;50.430;6.806;2023-12-20T07:54:22;65697.00;;;2.57;100.00
46614;BME280;32338;50.430;6.806;2023-12-20T07:56:49;65702.72;;;2.57;100.00
46614;BME280;32338;50.430;6.806;2023-12-20T07:59:16;65699.78;;;2.59;100.00
46614;BME280;32338;50.430;6.806;2023-12-20T08:01:42;65699.38;;;2.54;100.00
46614;BME280;32338;50.430;6.806;2023-12-20T08:04:09;65693.09;;;2.53;100.00
46614;BME280;32338;50.430;6.806;2023-12-20T08:06:37;65701.69;;;2.64;100.00
46614;BME280;32338;50.430;6.806;2023-12-20T08:09:03;65697.56;;;2.57;100.00
46614;BME280;32338;50.430;6.806;2023-12-20T08:11:30;65703.72;;;2.63;100.00
46614;BME280;32338;50.430;6.806;2023-12-20T08:13:57;65705.72;;;2.63;100.00
46614;BME280;32338;50.430;6.806;2023-12-20T08:16:23;65710.97;;;2.70;100.00
46614;BME280;32338;50.430;6.806;2023-12-20T08:18:50;65704.25;;;2.64;100.00
46614;BME280;32338;50.430;6.806;2023-12-20T08:21:17;65706.84;;;2.64;100.00
46614;BME280;32338;50.430;6.806;2023-12-20T08:23:46;65707.63;;;2.67;100.00
46614;BME280;32338;50.430;6.806;2023-12-20T08:26:18;65717.28;;;2.71;100.00
46614;BME280;32338;50.430;6.806;2023-12-20T08:28:45;65720.28;;;2.76;100.00
46614;BME280;32338;50.430;6.806;2023-12-20T08:31:13;65717.16;;;2.75;100.00
46614;BME280;32338;50.430;6.806;2023-12-20T08:33:40;65718.94;;;2.72;100.00
46614;BME280;32338;50.430;6.806;2023-12-20T08:36:07;65711.53;;;2.70;100.00
46614;BME280;32338;50.430;6.806;2023-12-20T08:38:33;65714.34;;;2.73;100.00
46614;BME280;32338;50.430;6.806;2023-12-20T08:41:01;65714.91;;;2.73;100.00
46614;BME280;32338;50.430;6.806;2023-12-20T08:43:30;65713.78;;;2.72;100.00
46614;BME280;32338;50.430;6.806;2023-12-20T08:45:57;65719.16;;;2.75;100.00
46614;BME280;32338;50.430;6.806;2023-12-20T08:48:23;65723.22;;;2.74;100.00
46614;BME280;32338;50.430;6.806;2023-12-20T08:50:50;65717.16;;;2.75;100.00
46614;BME280;32338;50.430;6.806;2023-12-20T08:53:17;65723.44;;;2.76;100.00
46614;BME280;32338;50.430;6.806;2023-12-20T08:55:44;65724.00;;;2.77;100.00
46614;BME280;32338;50.430;6.806;2023-12-20T08:58:12;65727.72;;;2.78;100.00
46614;BME280;32338;50.430;6.806;2023-12-20T09:00:39;65714.91;;;2.73;100.00
46614;BME280;32338;50.430;6.806;2023-12-20T09:03:05;65712.09;;;2.71;100.00
46614;BME280;32338;50.430;6.806;2023-12-20T09:05:32;65714.34;;;2.73;100.00
46614;BME280;32338;50.430;6.806;2023-12-20T09:07:58;65715.81;;;2.72;100.00
46614;BME280;32338;50.430;6.806;2023-12-20T09:10:25;65723.09;;;2.79;100.00
46614;BME280;32338;50.430;6.806;2023-12-20T09:12:52;65723.63;;;2.79;100.00
46614;BME280;32338;50.430;6.806;2023-12-20T09:15:22;65729.25;;;2.84;100.00
46614;BME280;32338;50.430;6.806;2023-12-20T09:17:49;65731.25;;;2.84;100.00
46614;BME280;32338;50.430;6.806;2023-12-20T09:20:16;65721.03;;;2.79;100.00
46614;BME280;32338;50.430;6.806;2023-12-20T09:22:42;65718.59;;;2.74;100.00
46614;BME280;32338;50.430;6.806;2023-12-20T09:25:09;65727.00;;;2.82;100.00
46614;BME280;32338;50.430;6.806;2023-12-20T09:27:36;65727.91;;;2.81;100.00
46614;BME280;32338;50.430;6.806;2023-12-20T09:30:04;65738.41;;;2.95;100.00
46614;BME280;32338;50.430;6.806;2023-12-20T09:32:32;65748.28;;;3.02;100.00
46614;BME280;32338;50.430;6.806;2023-12-20T09:34:59;65756.88;;;3.12;100.00
46614;BME280;32338;50.430;6.806;2023-12-20T09:37:26;65770.09;;;3.22;100.00
46614;BME280;32338;50.430;6.806;2023-12-20T09:39:53;65775.13;;;3.27;100.00
46614;BME280;32338;50.430;6.806;2023-12-20T09:42:24;65763.22;;;3.20;100.00
46614;BME280;32338;50.430;6.806;2023-12-20T09:44:55;65768.59;;;3.23;100.00
46614;BME280;32338;50.430;6.806;2023-12-20T09:47:23;65754.06;;;3.10;100.00
46614;BME280;32338;50.430;6.806;2023-12-20T09:49:52;65752.16;;;3.05;100.00
46614;BME280;32338;50.430;6.806;2023-12-20T09:52:19;65750.56;;;3.11;100.00
46614;BME280;32338;50.430;6.806;2023-12-20T09:54:48;65763.59;;;3.18;100.00
46614;BME280;32338;50.430;6.806;2023-12-20T09:57:16;65760.00;;;3.13;100.00
46614;BME280;32338;50.430;6.806;2023-12-20T09:59:42;65758.19;;;3.16;100.00
46614;BME280;32338;50.430;6.806;2023-12-20T10:02:13;65753.50;;;3.09;100.00
46614;BME280;32338;50.430;6.806;2023-12-20T10:04:43;65764.28;;;3.14;100.00
46614;BME280;32338;50.430;6.806;2023-12-20T10:07:13;65760.59;;;3.13;100.00
46614;BME280;32338;50.430;6.806;2023-12-20T10:09:40;65763.00;;;3.18;100.00
46614;BME280;32338;50.430;6.806;2023-12-20T10:12:08;65767.31;;;3.19;100.00
46614;BME280;32338;50.430;6.806;2023-12-20T10:14:35;65769.94;;;3.27;100.00
46614;BME280;32338;50.430;6.806;2023-12-20T10:17:02;65779.63;;;3.31;100.00
46614;BME280;32338;50.430;6.806;2023-12-20T10:19:29;65780.72;;;3.32;100.00
46614;BME280;32338;50.430;6.806;2023-12-20T10:21:55;65777.91;;;3.29;100.00
46614;BME280;32338;50.430;6.806;2023-12-20T10:24:23;65774.91;;;3.24;100.00
46614;BME280;32338;50.430;6.806;2023-12-20T10:27:01;65761.34;;;3.16;100.00
46614;BME280;32338;50.430;6.806;2023-12-20T10:29:31;65772.13;;;3.21;100.00
46614;BME280;32338;50.430;6.806;2023-12-20T10:31:58;65769.19;;;3.23;100.00
46614;BME280;32338;50.430;6.806;2023-12-20T10:34:24;65777.38;;;3.29;100.00
46614;BME280;32338;50.430;6.806;2023-12-20T10:36:51;65764.91;;;3.22;100.00
46614;BME280;32338;50.430;6.806;2023-12-20T10:39:19;65771.91;;;3.19;100.00
46614;BME280;32338;50.430;6.806;2023-12-20T10:41:48;65759.66;;;3.15;100.00
46614;BME280;32338;50.430;6.806;2023-12-20T10:44:15;65757.41;;;3.13;100.00
46614;BME280;32338;50.430;6.806;2023-12-20T10:46:42;65764.91;;;3.22;100.00
46614;BME280;32338;50.430;6.806;2023-12-20T10:49:15;65772.13;;;3.21;100.00
46614;BME280;32338;50.430;6.806;2023-12-20T10:51:44;65764.13;;;3.19;100.00
46614;BME280;32338;50.430;6.806;2023-12-20T10:54:12;65769.88;;;3.19;100.00
46614;BME280;32338;50.430;6.806;2023-12-20T10:56:39;65766.38;;;3.21;100.00
46614;BME280;32338;50.430;6.806;2023-12-20T10:59:11;65767.31;;;3.19;100.00
46614;BME280;32338;50.430;6.806;2023-12-20T11:01:38;65755.88;;;3.06;100.00
46614;BME280;32338;50.430;6.806;2023-12-20T11:04:10;65752.94;;;3.08;100.00
46614;BME280;32338;50.430;6.806;2023-12-20T11:06:44;65759.09;;;3.14;100.00
46614;BME280;32338;50.430;6.806;2023-12-20T11:09:24;65754.06;;;3.10;100.00
46614;BME280;32338;50.430;6.806;2023-12-20T11:11:59;65760.00;;;3.13;100.00
46614;BME280;32338;50.430;6.806;2023-12-20T11:14:34;65757.22;;;3.10;100.00
46614;BME280;32338;50.430;6.806;2023-12-20T11:17:06;65762.81;;;3.15;100.00
46614;BME280;32338;50.430;6.806;2023-12-20T11:19:36;65759.25;;;3.10;100.00
46614;BME280;32338;50.430;6.806;2023-12-20T11:22:03;65740.63;;;2.97;100.00
46614;BME280;32338;50.430;6.806;2023-12-20T11:24:31;65762.81;;;3.15;100.00
46614;BME280;32338;50.430;6.806;2023-12-20T11:26:59;65761.69;;;3.14;100.00
46614;BME280;32338;50.430;6.806;2023-12-20T11:29:31;65766.19;;;3.18;100.00
46614;BME280;32338;50.430;6.806;2023-12-20T11:31:59;65768.97;;;3.21;100.00
46614;BME280;32338;50.430;6.806;2023-12-20T11:34:27;65771.78;;;3.23;100.00
46614;BME280;32338;50.430;6.806;2023-12-20T11:36:57;65763.00;;;3.18;100.00
46614;BME280;32338;50.430;6.806;2023-12-20T11:39:25;65767.31;;;3.19;100.00
46614;BME280;32338;50.430;6.806;2023-12-20T11:41:52;65763.00;;;3.18;100.00
46614;BME280;32338;50.430;6.806;2023-12-20T11:44:20;65752.16;;;3.05;100.00
46614;BME280;32338;50.430;6.806;2023-12-20T11:46:48;65760.59;;;3.13;100.00
46614;BME280;32338;50.430;6.806;2023-12-20T11:49:15;65756.88;;;3.12;100.00
46614;BME280;32338;50.430;6.806;2023-12-20T11:51:41;65764.44;;;3.10;100.00
46614;BME280;32338;50.430;6.806;2023-12-20T11:54:08;65749.03;;;3.05;100.00
46614;BME280;32338;50.430;6.806;2023-12-20T11:56:36;65736.38;;;2.96;100.00
46614;BME280;32338;50.430;6.806;2023-12-20T11:59:03;65743.09;;;3.02;100.00
46614;BME280;32338;50.430;6.806;2023-12-20T12:01:31;65751.28;;;3.07;100.00
46614;BME280;32338;50.430;6.806;2023-12-20T12:04:05;65757.78;;;3.11;100.00
46614;BME280;32338;50.430;6.806;2023-12-20T12:06:32;65755.00;;;3.08;100.00
46614;BME280;32338;50.430;6.806;2023-12-20T12:08:59;65757.56;;;3.08;100.00
46614;BME280;32338;50.430;6.806;2023-12-20T12:11:25;65753.66;;;3.04;100.00
46614;BME280;32338;50.430;6.806;2023-12-20T12:13:52;65765.97;;;3.16;100.00
46614;BME280;32338;50.430;6.806;2023-12-20T12:16:20;65757.00;;;3.07;100.00
46614;BME280;32338;50.430;6.806;2023-12-20T12:18:54;65767.84;;;3.20;100.00
46614;BME280;32338;50.430;6.806;2023-12-20T12:21:22;65761.34;;;3.16;100.00
46614;BME280;32338;50.430;6.806;2023-12-20T12:23:48;65763.00;;;3.18;100.00
46614;BME280;32338;50.430;6.806;2023-12-20T12:26:15;65766.53;;;3.16;100.00
46614;BME280;32338;50.430;6.806;2023-12-20T12:28:42;65768.75;;;3.18;100.00
46614;BME280;32338;50.430;6.806;2023-12-20T12:31:13;65753.16;;;3.11;100.00
46614;BME280;32338;50.430;6.806;2023-12-20T12:33:40;65755.41;;;3.13;100.00
46614;BME280;32338;50.430;6.806;2023-12-20T12:36:07;65767.09;;;3.17;100.00
46614;BME280;32338;50.430;6.806;2023-12-20T12:38:35;65766.72;;;3.19;100.00
46614;BME280;32338;50.430;6.806;2023-12-20T12:41:02;65752.94;;;3.08;100.00
46614;BME280;32338;50.430;6.806;2023-12-20T12:43:28;65760.00;;;3.13;100.00
46614;BME280;32338;50.430;6.806;2023-12-20T12:45:55;65771.19;;;3.23;100.00
46614;BME280;32338;50.430;6.806;2023-12-20T12:48:21;65776.44;;;3.30;100.00
46614;BME280;32338;50.430;6.806;2023-12-20T12:50:48;65777.56;;;3.31;100.00
46614;BME280;32338;50.430;6.806;2023-12-20T12:53:17;65765.25;;;3.20;100.00
46614;BME280;32338;50.430;6.806;2023-12-20T12:55:45;65776.59;;;3.26;100.00
46614;BME280;32338;50.430;6.806;2023-12-20T12:58:11;65785.22;;;3.36;100.00
46614;BME280;32338;50.430;6.806;2023-12-20T13:00:38;65792.47;;;3.43;100.00